Time;durP1;ratioP1;P1;durP2;ratioP2;P2;SDS_P1;SDS_P2;PMS_P1;PMS_P2;Temp;Humidity;BMP_temperature;BMP_pressure;BME280_temperature;BME280_humidity;BME280_pressure;Samples;Min_cycle;Max_cycle;Signal;HPM_P1;HPM_P2
2021/11/28 00:01:44;;;;;;;6.93;3.70;;;2.50;99.90;;;3.31;100.00;95970.16;5032492;28;20550;-84
2021/11/28 00:04:13;;;;;;;3.73;3.33;;;2.50;99.90;;;3.34;100.00;95972.34;5046311;28;20472;-85
2021/11/28 00:06:54;;;;;;;4.33;3.33;;;2.60;99.90;;;3.34;100.00;95967.16;5037587;28;20465;-85
2021/11/28 00:09:43;;;;;;;4.30;3.50;;;2.70;99.90;;;3.35;100.00;95971.34;5037020;28;20469;-85
2021/11/28 00:12:24;;;;;;;7.77;3.60;;;2.70;99.90;;;3.36;100.00;95964.41;5030509;28;20497;-86
2021/11/28 00:14:56;;;;;;;4.73;3.07;;;2.70;99.90;;;3.35;100.00;95968.78;5032709;28;20997;-85
2021/11/28 00:17:25;;;;;;;4.37;3.33;;;2.60;99.90;;;3.36;100.00;95965.22;5030977;28;20470;-85
2021/11/28 00:19:54;;;;;;;3.53;2.87;;;2.60;99.90;;;3.36;100.00;95957.47;5027783;28;20448;-86
2021/11/28 00:22:25;;;;;;;3.40;2.90;;;2.60;99.90;;;3.35;100.00;95961.03;5026864;28;20486;-85
2021/11/28 00:24:53;;;;;;;3.90;2.90;;;2.60;99.90;;;3.35;100.00;95953.28;5029978;28;20473;-85
2021/11/28 00:27:23;;;;;;;3.20;2.90;;;2.60;99.90;;;3.37;100.00;95961.63;5038224;28;20462;-82
2021/11/28 00:29:52;;;;;;;3.60;2.80;;;2.60;99.90;;;3.36;100.00;95960.03;5022725;28;20486;-82
2021/11/28 00:32:20;;;;;;;3.40;3.10;;;2.70;99.90;;;3.38;100.00;95965.78;5019013;28;20549;-82
2021/11/28 00:34:49;;;;;;;4.53;3.30;;;2.80;99.90;;;3.37;100.00;95966.78;5026473;28;20456;-82
2021/11/28 00:37:18;;;;;;;3.37;2.80;;;2.70;99.90;;;3.37;100.00;95964.19;5026019;28;20867;-82
2021/11/28 00:39:49;;;;;;;3.73;2.90;;;2.60;99.90;;;3.36;100.00;95962.63;5024581;28;20485;-83
2021/11/28 00:42:17;;;;;;;4.00;2.90;;;2.50;99.90;;;3.29;100.00;95956.63;5028890;28;20475;-82
2021/11/28 00:44:46;;;;;;;3.23;2.67;;;2.50;99.90;;;3.29;100.00;95959.22;5031584;28;20505;-82
2021/11/28 00:47:15;;;;;;;4.13;3.23;;;2.50;99.90;;;3.29;100.00;95961.81;5029854;28;20503;-83
2021/11/28 00:49:51;;;;;;;3.60;3.20;;;2.50;99.90;;;3.30;100.00;95957.41;5023915;28;20811;-82
2021/11/28 00:52:20;;;;;;;3.73;3.30;;;2.50;99.90;;;3.33;100.00;95950.06;5029330;28;20530;-82
2021/11/28 00:54:50;;;;;;;3.30;3.00;;;2.50;99.90;;;3.33;100.00;95957.81;5028218;28;20937;-83
2021/11/28 00:57:18;;;;;;;5.27;2.70;;;2.50;99.90;;;3.34;100.00;95962.00;5037444;28;20515;-82
2021/11/28 00:59:47;;;;;;;3.20;2.90;;;2.50;99.90;;;3.31;100.00;95959.81;5029561;28;20899;-82
2021/11/28 01:02:16;;;;;;;4.63;3.30;;;2.50;99.90;;;3.25;100.00;95958.00;5026754;28;20937;-82
2021/11/28 01:04:46;;;;;;;4.53;3.13;;;2.40;99.90;;;3.19;100.00;95963.16;5029704;28;20447;-82
2021/11/28 01:07:15;;;;;;;4.80;3.17;;;2.30;99.90;;;3.22;100.00;95968.72;5031439;28;20465;-82
2021/11/28 01:09:43;;;;;;;5.97;4.07;;;2.30;99.90;;;3.17;100.00;95971.06;5026275;28;20459;-82
2021/11/28 01:12:14;;;;;;;8.67;5.53;;;2.30;99.90;;;3.19;100.00;95974.28;5027284;28;20550;-83
2021/11/28 01:14:42;;;;;;;21.03;7.47;;;2.40;99.90;;;3.18;100.00;95977.84;5029595;28;20504;-82
2021/11/28 01:17:11;;;;;;;28.23;9.00;;;2.40;99.90;;;3.16;100.00;95979.03;5030946;28;20486;-83
2021/11/28 01:19:40;;;;;;;24.80;8.33;;;2.30;99.90;;;3.12;100.00;95968.28;5017160;28;20928;-82
2021/11/28 01:22:12;;;;;;;25.13;8.63;;;2.20;99.90;;;3.11;100.00;95976.22;5031090;28;21283;-82
2021/11/28 01:24:42;;;;;;;20.00;8.03;;;2.20;99.90;;;3.14;100.00;95979.22;5036398;28;20457;-82
2021/11/28 01:27:15;;;;;;;12.13;5.30;;;2.40;99.90;;;3.15;100.00;95985.19;5023630;28;20438;-83
2021/11/28 01:29:44;;;;;;;8.97;4.33;;;2.30;99.90;;;3.17;100.00;95985.75;5034229;28;20455;-82
2021/11/28 01:32:14;;;;;;;10.93;4.77;;;2.40;99.90;;;3.13;100.00;95990.50;5027305;28;20994;-82
2021/11/28 01:34:42;;;;;;;6.53;3.60;;;2.30;99.90;;;3.14;100.00;95992.13;5024458;28;20510;-82
2021/11/28 01:37:11;;;;;;;12.00;4.63;;;2.30;99.90;;;3.16;100.00;95994.53;5025010;28;20462;-82
2021/11/28 01:39:40;;;;;;;9.60;5.43;;;2.30;99.90;;;3.12;100.00;95995.88;5036963;28;20559;-82
2021/11/28 01:42:08;;;;;;;21.83;8.20;;;2.20;99.90;;;3.10;100.00;95990.91;5027970;28;20511;-82
2021/11/28 01:44:38;;;;;;;17.03;8.03;;;2.20;99.90;;;3.12;100.00;95994.09;5025767;28;20465;-82
2021/11/28 01:47:07;;;;;;;19.70;6.27;;;2.30;99.90;;;3.13;100.00;95995.69;5024699;28;20474;-82
2021/11/28 01:49:36;;;;;;;14.80;6.87;;;2.30;99.90;;;3.12;100.00;95991.53;5031271;28;20463;-82
2021/11/28 01:52:07;;;;;;;22.60;7.13;;;2.30;99.90;;;3.11;100.00;95992.50;5031039;28;20536;-83
2021/11/28 01:54:35;;;;;;;11.30;6.00;;;2.30;99.90;;;3.10;100.00;95998.66;5025324;28;20517;-82
2021/11/28 01:57:05;;;;;;;9.47;4.47;;;2.20;99.90;;;3.11;100.00;96000.25;5028499;28;20866;-83
2021/11/28 01:59:33;;;;;;;11.67;5.20;;;2.20;99.90;;;3.13;100.00;96000.84;5024275;28;20523;-82
2021/11/28 02:02:04;;;;;;;9.37;4.63;;;2.30;99.90;;;3.15;100.00;95993.72;5032722;28;20465;-83
2021/11/28 02:04:33;;;;;;;5.90;3.60;;;2.40;99.90;;;3.16;100.00;95997.88;5029215;28;20476;-82
2021/11/28 02:07:03;;;;;;;5.43;3.83;;;2.30;99.90;;;3.18;100.00;95993.34;5028700;28;20462;-82
2021/11/28 02:09:32;;;;;;;8.93;4.10;;;2.30;99.90;;;3.15;100.00;95991.13;5036556;28;20484;-82
2021/11/28 02:12:01;;;;;;;6.10;3.80;;;2.30;99.90;;;3.15;100.00;95990.34;5029344;28;20507;-82
2021/11/28 02:14:29;;;;;;;4.50;3.90;;;2.40;99.90;;;3.14;100.00;95989.53;5035404;28;20559;-82
2021/11/28 02:16:59;;;;;;;6.83;4.63;;;2.30;99.90;;;3.15;100.00;95993.72;5035824;28;20465;-82
2021/11/28 02:19:29;;;;;;;10.63;5.00;;;2.40;99.90;;;3.16;100.00;95990.13;5030742;28;20464;-83
2021/11/28 02:21:59;;;;;;;10.20;5.23;;;2.40;99.90;;;3.18;100.00;95993.34;5036552;28;20505;-82
2021/11/28 02:24:29;;;;;;;4.57;3.60;;;2.40;99.90;;;3.19;100.00;95989.78;5027967;28;20473;-82
2021/11/28 02:27:01;;;;;;;8.07;4.47;;;2.30;99.90;;;3.20;100.00;95996.50;5028002;28;20458;-83
2021/11/28 02:29:30;;;;;;;8.67;4.27;;;2.50;99.90;;;3.18;100.00;95998.50;5031533;28;20822;-82
2021/11/28 02:31:58;;;;;;;7.53;3.63;;;2.40;99.90;;;3.14;100.00;95992.13;5034334;28;20465;-82
2021/11/28 02:34:27;;;;;;;7.10;3.90;;;2.30;99.90;;;3.16;100.00;95991.94;5043095;28;20500;-82
2021/11/28 02:36:55;;;;;;;4.90;3.17;;;2.40;99.90;;;3.14;100.00;95991.31;5038065;28;20876;-83
2021/11/28 02:39:25;;;;;;;4.80;3.50;;;2.30;99.90;;;3.15;100.00;95993.72;5034354;28;20461;-83
2021/11/28 02:41:54;;;;;;;6.40;4.77;;;2.30;99.90;;;3.17;100.00;95990.94;5032151;28;20943;-82
2021/11/28 02:44:23;;;;;;;10.43;4.73;;;2.30;99.90;;;3.17;100.00;95996.91;5020721;28;20841;-82
2021/11/28 02:46:52;;;;;;;6.63;4.50;;;2.40;99.90;;;3.18;100.00;95998.50;5018937;28;20951;-82
2021/11/28 02:49:20;;;;;;;5.20;3.83;;;2.40;99.90;;;3.15;100.00;95998.88;5034666;28;20491;-82
2021/11/28 02:51:49;;;;;;;5.37;3.80;;;2.30;99.90;;;3.17;100.00;95999.47;5038782;28;20478;-82
2021/11/28 02:54:18;;;;;;;5.70;3.57;;;2.30;99.90;;;3.16;100.00;95995.28;5043405;28;20555;-82
2021/11/28 02:56:49;;;;;;;4.43;3.70;;;2.40;99.90;;;3.15;100.00;95996.31;5036282;28;20511;-83
2021/11/28 02:59:18;;;;;;;5.63;3.70;;;2.40;99.90;;;3.10;100.00;95996.06;5038871;28;20480;-82
2021/11/28 03:01:47;;;;;;;6.10;4.03;;;2.30;99.90;;;3.07;100.00;95993.88;5035460;28;20461;-82
2021/11/28 03:04:17;;;;;;;5.93;3.90;;;2.20;99.90;;;3.03;100.00;95988.28;5037070;28;20807;-83
2021/11/28 03:06:46;;;;;;;7.07;4.10;;;2.20;99.90;;;3.00;100.00;95993.84;5023989;28;20454;-83
2021/11/28 03:09:14;;;;;;;9.23;3.97;;;2.20;99.90;;;3.02;100.00;95993.63;5034833;28;20872;-83
2021/11/28 03:11:43;;;;;;;6.37;4.10;;;2.20;99.90;;;3.05;100.00;95993.28;5032570;28;20449;-82
2021/11/28 03:14:13;;;;;;;6.23;4.20;;;2.10;99.90;;;3.04;100.00;95996.84;5039931;28;20532;-83
2021/11/28 03:16:42;;;;;;;6.70;3.97;;;2.20;99.90;;;3.08;100.00;95992.88;5030900;28;20466;-82
2021/11/28 03:19:10;;;;;;;7.27;3.30;;;2.20;99.90;;;3.10;100.00;96000.44;5022320;28;20472;-82
2021/11/28 03:21:41;;;;;;;4.00;3.53;;;2.30;99.90;;;3.09;100.00;96007.38;5022240;28;20477;-82
2021/11/28 03:24:10;;;;;;;6.93;3.83;;;2.30;99.90;;;3.09;100.00;95993.69;5030962;28;20538;-82
2021/11/28 03:26:41;;;;;;;4.17;3.60;;;2.30;99.90;;;3.10;100.00;95995.25;5039156;28;20515;-82
2021/11/28 03:29:16;;;;;;;4.20;3.70;;;2.30;99.90;;;3.10;100.00;96001.22;5033773;28;20450;-82
2021/11/28 03:31:48;;;;;;;5.50;3.70;;;2.30;99.90;;;3.09;100.00;95998.84;5033983;28;20507;-82
2021/11/28 03:34:19;;;;;;;4.00;3.57;;;2.20;99.90;;;3.10;100.00;96006.41;5034505;28;20493;-83
2021/11/28 03:36:52;;;;;;;5.00;3.27;;;2.30;99.90;;;3.10;100.00;96000.44;5041112;28;20802;-82
2021/11/28 03:39:25;;;;;;;3.10;2.80;;;2.40;99.90;;;3.10;100.00;95998.66;5030707;28;20513;-82
2021/11/28 03:41:59;;;;;;;3.93;3.27;;;2.40;99.90;;;3.12;100.00;96009.59;5025337;28;20858;-82
2021/11/28 03:44:30;;;;;;;8.73;3.80;;;2.40;99.90;;;3.10;100.00;96001.22;5029675;28;20460;-82
2021/11/28 03:46:59;;;;;;;6.20;3.70;;;2.30;99.90;;;3.09;100.00;96009.94;5023557;28;20442;-82
2021/11/28 03:49:28;;;;;;;22.23;3.77;;;2.30;99.90;;;3.13;100.00;96010.38;5037465;28;20450;-82
2021/11/28 03:51:57;;;;;;;8.33;3.07;;;2.30;99.90;;;3.13;100.00;96013.75;5026886;28;20482;-82
2021/11/28 03:54:26;;;;;;;4.13;2.90;;;2.30;99.90;;;3.10;100.00;96011.56;5019489;28;20568;-83
2021/11/28 03:56:54;;;;;;;4.23;2.97;;;2.20;99.90;;;3.08;100.00;96003.22;5025580;28;20466;-82
2021/11/28 03:59:23;;;;;;;3.80;2.80;;;2.30;99.90;;;3.07;100.00;96009.34;5039928;28;20962;-82
2021/11/28 04:01:53;;;;;;;7.60;3.50;;;2.20;99.90;;;3.03;100.00;96008.13;5037639;28;20464;-83
2021/11/28 04:04:22;;;;;;;9.30;3.30;;;2.20;99.90;;;3.07;100.00;96006.78;5036396;28;20460;-82
2021/11/28 04:06:51;;;;;;;4.10;3.00;;;2.20;99.90;;;3.09;100.00;96009.94;5041017;28;20876;-83
2021/11/28 04:09:19;;;;;;;3.87;2.80;;;2.20;99.90;;;3.12;100.00;96004.44;5037911;28;20930;-83
2021/11/28 04:11:48;;;;;;;7.07;3.17;;;2.30;99.90;;;3.12;100.00;96017.34;5032327;28;20476;-82
2021/11/28 04:14:18;;;;;;;4.00;3.53;;;2.30;99.90;;;3.13;100.00;96010.38;5027600;28;20610;-82
2021/11/28 04:16:46;;;;;;;4.83;3.30;;;2.30;99.90;;;3.13;100.00;96013.75;5038354;28;20464;-83
2021/11/28 04:19:16;;;;;;;3.27;2.97;;;2.30;99.90;;;3.18;100.00;96014.00;5040710;28;20452;-82
2021/11/28 04:21:45;;;;;;;9.83;3.63;;;2.40;99.90;;;3.19;100.00;96019.97;5031234;28;20462;-82
2021/11/28 04:24:14;;;;;;;8.30;3.37;;;2.30;99.90;;;3.16;100.00;96018.53;5032341;28;21002;-83
2021/11/28 04:26:44;;;;;;;5.20;3.27;;;2.30;99.90;;;3.14;100.00;96023.09;5043519;28;20633;-83
2021/11/28 04:29:13;;;;;;;4.07;3.00;;;2.30;99.90;;;3.14;100.00;96023.09;5039352;28;20508;-83
2021/11/28 04:31:42;;;;;;;3.30;3.00;;;2.30;99.90;;;3.09;100.00;96012.53;5044573;28;20981;-82
2021/11/28 04:34:10;;;;;;;3.40;2.90;;;2.20;99.90;;;3.08;100.00;96012.75;5042712;28;20584;-83
2021/11/28 04:36:40;;;;;;;4.83;3.23;;;2.20;99.90;;;3.07;100.00;96022.25;5043452;28;20449;-83
2021/11/28 04:39:09;;;;;;;5.47;3.53;;;2.10;99.90;;;3.02;100.00;96024.59;5039216;28;20506;-82
2021/11/28 04:41:38;;;;;;;4.77;3.27;;;2.10;99.90;;;3.03;100.00;96023.63;5031305;28;20461;-83
2021/11/28 04:44:07;;;;;;;8.53;4.13;;;2.10;99.90;;;3.01;100.00;96023.03;5035410;28;20858;-83
2021/11/28 04:46:35;;;;;;;9.53;4.23;;;2.10;99.90;;;3.08;100.00;96029.03;5030592;28;20515;-83
2021/11/28 04:49:05;;;;;;;21.40;5.90;;;2.20;99.90;;;3.05;100.00;96019.09;5032042;28;20443;-83
2021/11/28 04:51:34;;;;;;;17.33;4.33;;;2.20;99.90;;;3.02;100.00;96012.50;5028828;28;20469;-82
2021/11/28 04:54:04;;;;;;;10.10;3.40;;;2.10;99.90;;;3.03;100.00;96015.88;5035569;28;21070;-82
2021/11/28 04:56:32;;;;;;;5.60;3.70;;;2.20;99.90;;;3.02;100.00;96015.09;5031427;28;20454;-82
2021/11/28 04:59:02;;;;;;;4.73;3.73;;;2.20;99.90;;;3.01;100.00;96021.25;5028353;28;20579;-82
2021/11/28 05:01:31;;;;;;;9.73;4.57;;;2.20;99.90;;;3.01;100.00;96017.88;5024202;28;20466;-83
2021/11/28 05:04:00;;;;;;;11.93;4.17;;;2.20;99.90;;;3.00;100.00;96013.69;5027374;28;20528;-82
2021/11/28 05:06:29;;;;;;;9.87;4.10;;;2.10;99.90;;;3.01;100.00;96018.66;5023884;28;20473;-82
2021/11/28 05:08:57;;;;;;;7.43;3.90;;;2.10;99.90;;;3.02;100.00;96022.03;5018207;28;20656;-83
2021/11/28 05:11:27;;;;;;;11.73;4.20;;;2.20;99.90;;;3.02;100.00;96022.81;5030455;28;20920;-82
2021/11/28 05:13:56;;;;;;;14.93;3.90;;;2.10;99.90;;;3.01;100.00;96018.66;5028932;28;20570;-82
2021/11/28 05:16:24;;;;;;;17.73;6.07;;;2.20;99.90;;;3.06;100.00;96015.50;5020218;28;20446;-82
2021/11/28 05:18:53;;;;;;;16.50;5.57;;;2.20;99.90;;;3.05;100.00;96019.88;5027152;28;20545;-81
2021/11/28 05:21:22;;;;;;;8.90;4.33;;;2.20;99.90;;;3.05;100.00;96012.13;5027221;28;20876;-84
2021/11/28 05:23:50;;;;;;;15.07;4.73;;;2.20;99.90;;;3.08;100.00;96018.72;5027601;28;21018;-83
2021/11/28 05:26:19;;;;;;;12.77;4.63;;;2.20;99.90;;;3.09;100.00;96015.13;5025558;28;20470;-82
2021/11/28 05:28:49;;;;;;;8.33;4.30;;;2.30;99.90;;;3.12;100.00;96014.75;5024007;28;20861;-83
2021/11/28 05:31:18;;;;;;;11.63;4.60;;;2.30;99.90;;;3.08;100.00;96012.75;5021195;28;20473;-83
2021/11/28 05:33:48;;;;;;;7.60;4.33;;;2.20;99.90;;;3.04;100.00;96007.16;5022973;28;20512;-83
2021/11/28 05:36:19;;;;;;;11.50;4.00;;;2.20;99.90;;;3.05;100.00;96012.13;5028101;28;20497;-83
2021/11/28 05:38:47;;;;;;;14.10;4.73;;;2.20;99.90;;;3.02;100.00;96014.28;5026407;28;20544;-83
2021/11/28 05:41:17;;;;;;;7.67;4.13;;;2.30;99.90;;;3.02;100.00;96015.09;5024663;28;20469;-84
2021/11/28 05:43:47;;;;;;;7.67;3.63;;;2.30;99.90;;;3.06;100.00;96020.66;5020847;28;20474;-84
2021/11/28 05:46:18;;;;;;;7.03;4.13;;;2.20;99.90;;;3.09;100.00;96017.69;5023573;28;20469;-83
2021/11/28 05:48:47;;;;;;;9.13;4.03;;;2.30;99.90;;;3.11;100.00;96017.53;5022834;28;20498;-84
2021/11/28 05:51:15;;;;;;;6.47;3.90;;;2.30;99.90;;;3.13;100.00;96016.34;5022132;28;20529;-83
2021/11/28 05:53:44;;;;;;;5.03;3.37;;;2.20;99.90;;;3.12;100.00;96013.97;5022955;28;20826;-83
2021/11/28 05:56:16;;;;;;;9.53;3.70;;;2.30;99.90;;;3.09;100.00;96015.13;5027150;28;20540;-83
2021/11/28 05:58:45;;;;;;;7.53;3.97;;;2.20;99.90;;;3.08;100.00;96013.53;5019387;28;21013;-83
2021/11/28 06:01:14;;;;;;;11.17;4.00;;;2.20;99.90;;;3.05;100.00;96025.03;5022423;28;20458;-83
2021/11/28 06:03:44;;;;;;;7.20;3.60;;;2.20;99.90;;;3.03;100.00;96018.47;5021365;28;20466;-83
2021/11/28 06:06:13;;;;;;;7.80;3.70;;;2.10;99.90;;;3.08;100.00;96017.91;5026206;28;20464;-83
2021/11/28 06:08:43;;;;;;;4.50;4.00;;;2.20;99.90;;;3.06;100.00;96031.00;5024926;28;20979;-81
2021/11/28 06:11:11;;;;;;;6.53;3.77;;;2.20;99.90;;;3.07;100.00;96021.47;5032955;28;20454;-80
2021/11/28 06:13:40;;;;;;;8.57;4.83;;;2.20;99.90;;;3.07;100.00;96027.44;5026057;28;20462;-80
2021/11/28 06:16:09;;;;;;;8.60;3.77;;;2.20;99.90;;;3.07;100.00;96029.22;5033239;28;20478;-80
2021/11/28 06:18:38;;;;;;;8.27;4.20;;;2.20;99.90;;;3.02;100.00;96015.09;5034116;28;20755;-80
2021/11/28 06:21:08;;;;;;;7.47;3.60;;;2.10;99.90;;;3.04;100.00;96018.28;5034732;28;20904;-80
2021/11/28 06:23:36;;;;;;;14.27;4.30;;;2.20;99.90;;;3.07;100.00;96022.25;5034934;28;20560;-80
2021/11/28 06:26:05;;;;;;;4.97;4.00;;;2.20;99.90;;;3.11;100.00;96023.47;5036216;28;20460;-80
2021/11/28 06:28:35;;;;;;;4.93;4.13;;;2.20;99.90;;;3.13;100.00;96024.06;5030101;28;20453;-81
2021/11/28 06:31:06;;;;;;;11.73;3.77;;;2.30;99.90;;;3.10;100.00;96019.31;5025353;28;20532;-80
2021/11/28 06:33:35;;;;;;;6.60;4.20;;;2.30;99.90;;;3.13;100.00;96031.81;5025086;28;20462;-79
2021/11/28 06:36:05;;;;;;;9.33;4.00;;;2.40;99.90;;;3.13;100.00;96031.81;5031107;28;21008;-79
2021/11/28 06:38:36;;;;;;;9.80;4.10;;;2.40;99.90;;;3.16;100.00;96026.28;5026583;28;20448;-79
2021/11/28 06:41:04;;;;;;;14.97;4.20;;;2.40;99.90;;;3.18;100.00;96034.66;5034602;28;20516;-80
2021/11/28 06:43:33;;;;;;;3.90;3.30;;;2.40;99.90;;;3.19;100.00;96036.25;5034397;28;20463;-80
2021/11/28 06:46:02;;;;;;;4.30;3.27;;;2.40;99.90;;;3.19;100.00;96031.09;5032543;28;20454;-80
2021/11/28 06:48:32;;;;;;;3.33;3.00;;;2.40;99.90;;;3.15;100.00;96042.78;5031945;28;20445;-80
2021/11/28 06:51:01;;;;;;;5.10;3.83;;;2.30;99.90;;;3.15;100.00;96045.34;5030914;28;20538;-80
2021/11/28 06:53:29;;;;;;;6.93;4.27;;;2.30;99.90;;;3.17;100.00;96045.16;5028081;28;20500;-81
2021/11/28 06:56:03;;;;;;;5.80;4.07;;;2.30;99.90;;;3.19;100.00;96051.75;5018134;28;20544;-80
2021/11/28 06:58:33;;;;;;;12.60;4.00;;;2.40;99.90;;;3.21;100.00;96043.78;5025203;28;21069;-80
2021/11/28 07:01:03;;;;;;;5.40;3.80;;;2.40;99.90;;;3.24;100.00;96040.81;5024461;28;20816;-80
2021/11/28 07:03:32;;;;;;;4.90;3.70;;;2.40;99.90;;;3.24;100.00;96049.38;5027909;28;20550;-80
2021/11/28 07:06:01;;;;;;;13.20;3.20;;;2.40;99.90;;;3.25;100.00;96045.00;5030115;28;20458;-80
2021/11/28 07:08:31;;;;;;;5.00;3.40;;;2.40;99.90;;;3.26;100.00;96057.75;5026598;28;20470;-81
2021/11/28 07:11:01;;;;;;;6.60;3.30;;;2.50;99.90;;;3.24;100.00;96054.53;5025372;28;20450;-81
2021/11/28 07:13:30;;;;;;;4.70;3.57;;;2.40;99.90;;;3.27;100.00;96055.94;5029812;28;20488;-80
2021/11/28 07:16:01;;;;;;;3.43;3.13;;;2.50;99.90;;;3.29;100.00;96047.03;5025548;28;20905;-81
2021/11/28 07:18:30;;;;;;;12.37;3.83;;;2.50;99.90;;;3.30;100.00;96053.75;5029953;28;20458;-81
2021/11/28 07:20:59;;;;;;;3.63;3.27;;;2.60;99.90;;;3.30;100.00;96051.19;5031880;28;20450;-81
2021/11/28 07:23:28;;;;;;;4.43;3.43;;;2.70;99.90;;;3.30;100.00;96052.97;5029561;28;21046;-82
2021/11/28 07:25:56;;;;;;;4.17;3.20;;;2.60;99.90;;;3.32;100.00;96059.56;5025117;28;20553;-81
2021/11/28 07:28:26;;;;;;;4.97;3.80;;;2.60;99.90;;;3.33;100.00;96062.94;5028530;28;20964;-80
2021/11/28 07:30:55;;;;;;;4.80;3.77;;;2.60;99.90;;;3.32;100.00;96061.34;5021533;28;20499;-80
2021/11/28 07:33:25;;;;;;;8.30;4.70;;;2.60;99.90;;;3.33;100.00;96058.53;5019543;28;20462;-81
2021/11/28 07:35:53;;;;;;;9.00;4.80;;;2.60;99.90;;;3.33;100.00;96063.72;5022112;28;20498;-80
2021/11/28 07:38:22;;;;;;;4.47;3.70;;;2.60;99.90;;;3.33;100.00;96063.72;5021477;28;20506;-80
2021/11/28 07:40:51;;;;;;;5.80;3.53;;;2.60;99.90;;;3.35;100.00;96071.28;5025624;28;20902;-80
2021/11/28 07:43:20;;;;;;;6.37;3.83;;;2.60;99.90;;;3.33;100.00;96074.03;5039126;28;20500;-80
2021/11/28 07:45:50;;;;;;;5.33;3.50;;;2.50;99.90;;;3.36;100.00;96089.19;5039669;28;20837;-80
2021/11/28 07:48:19;;;;;;;5.67;4.40;;;2.60;99.90;;;3.37;100.00;96083.00;5028869;28;20862;-80
2021/11/28 07:50:48;;;;;;;4.50;3.80;;;2.70;99.90;;;3.37;100.00;96085.59;5030890;28;20513;-80
2021/11/28 07:53:17;;;;;;;5.47;4.17;;;2.70;99.90;;;3.38;100.00;96081.22;5027513;28;20502;-80
2021/11/28 07:55:45;;;;;;;4.60;3.60;;;2.80;99.90;;;3.39;100.00;96088.81;5031206;28;20506;-80
2021/11/28 07:58:14;;;;;;;3.70;3.30;;;2.80;99.90;;;3.42;100.00;96088.41;5024586;28;20474;-81
2021/11/28 08:00:43;;;;;;;3.13;2.83;;;2.80;99.90;;;3.41;100.00;96086.81;5034981;28;20481;-80
2021/11/28 08:03:15;;;;;;;6.23;3.90;;;2.70;99.90;;;3.46;100.00;96099.16;5033358;28;20466;-80
2021/11/28 08:05:44;;;;;;;5.77;4.30;;;2.90;99.90;;;3.45;100.00;96089.81;5026064;28;20549;-80
2021/11/28 08:08:13;;;;;;;3.67;3.23;;;2.90;99.90;;;3.46;100.00;96094.81;5035657;28;20484;-80
2021/11/28 08:10:44;;;;;;;4.70;3.60;;;3.00;99.90;;;3.45;100.00;96098.34;5025008;28;20463;-80
2021/11/28 08:13:12;;;;;;;4.73;3.50;;;2.90;99.90;;;3.47;100.00;96101.53;5024309;28;22577;-80
2021/11/28 08:15:41;;;;;;;4.33;3.60;;;2.80;99.90;;;3.49;100.00;96102.16;5025846;28;20520;-80
2021/11/28 08:18:10;;;;;;;4.97;4.00;;;2.80;99.90;;;3.50;100.00;96106.34;5036886;28;20827;-80
2021/11/28 08:20:40;;;;;;;3.73;3.33;;;2.80;99.90;;;3.53;100.00;96105.97;5025187;28;20487;-80
2021/11/28 08:23:09;;;;;;;4.10;3.30;;;2.90;99.90;;;3.54;100.00;96109.31;5029346;28;20521;-80
2021/11/28 08:25:38;;;;;;;4.47;3.50;;;2.80;99.90;;;3.53;100.00;96116.31;5022910;28;21072;-80
2021/11/28 08:28:08;;;;;;;4.10;3.40;;;2.90;99.90;;;3.52;100.00;96114.69;5026774;28;20467;-80
2021/11/28 08:30:40;;;;;;;3.83;3.53;;;2.80;99.90;;;3.55;100.00;96116.91;5020578;28;20609;-81
2021/11/28 08:33:10;;;;;;;4.93;4.23;;;2.80;99.90;;;3.53;100.00;96118.88;5024850;28;20528;-80
2021/11/28 08:35:40;;;;;;;3.90;3.43;;;2.80;99.90;;;3.54;100.00;96117.06;5034900;28;20451;-80
2021/11/28 08:38:10;;;;;;;4.93;3.93;;;2.90;99.90;;;3.55;100.00;96119.47;5026547;28;20472;-80
2021/11/28 08:40:38;;;;;;;3.67;3.37;;;2.90;99.90;;;3.57;100.00;96110.75;5028027;28;20458;-80
2021/11/28 08:43:08;;;;;;;3.67;3.30;;;2.90;99.90;;;3.57;100.00;96121.88;5026452;28;20494;-79
2021/11/28 08:45:40;;;;;;;3.53;3.20;;;3.00;99.90;;;3.61;100.00;96120.50;5026587;28;20467;-81
2021/11/28 08:48:09;;;;;;;4.30;3.87;;;2.90;99.90;;;3.64;100.00;96121.91;5031351;28;20889;-80
2021/11/28 08:50:37;;;;;;;4.13;3.70;;;2.90;99.90;;;3.66;100.00;96125.09;5032106;28;20477;-80
2021/11/28 08:53:08;;;;;;;4.80;3.70;;;3.00;99.90;;;3.69;100.00;96124.72;5027019;28;20457;-80
2021/11/28 08:55:37;;;;;;;6.40;3.90;;;3.00;99.90;;;3.68;100.00;96123.13;5032578;28;20477;-81
2021/11/28 08:58:06;;;;;;;5.07;4.13;;;2.90;99.90;;;3.70;100.00;96123.72;5036361;28;20562;-81
2021/11/28 09:00:34;;;;;;;4.83;4.43;;;3.00;99.90;;;3.73;100.00;96125.94;5025728;28;20515;-81
2021/11/28 09:03:03;;;;;;;5.20;4.00;;;3.00;99.90;;;3.75;100.00;96113.63;5032566;28;20532;-81
2021/11/28 09:05:32;;;;;;;5.20;3.70;;;3.10;99.90;;;3.77;100.00;96121.97;5032362;28;20471;-81
2021/11/28 09:08:02;;;;;;;4.63;3.70;;;3.10;99.90;;;3.77;100.00;96125.34;5033271;28;20950;-81
2021/11/28 09:10:33;;;;;;;5.10;3.97;;;3.10;99.90;;;3.79;100.00;96120.78;5031200;28;20452;-79
2021/11/28 09:13:02;;;;;;;4.30;3.90;;;3.20;99.90;;;3.81;100.00;96112.84;5027458;28;20450;-80
2021/11/28 09:15:33;;;;;;;4.40;4.00;;;3.30;99.90;;;3.81;100.00;96120.59;5032174;28;20505;-81
2021/11/28 09:18:31;;;;;;;4.20;3.90;;;3.30;99.90;;;3.82;100.00;96124.75;5022971;28;20460;-80
2021/11/28 09:21:01;;;;;;;4.30;3.43;;;3.20;99.90;;;3.83;100.00;96126.38;5035123;28;20490;-81
2021/11/28 09:26:20;;;;;;;3.10;2.80;;;3.20;99.90;;;3.83;100.00;96140.09;5007624;28;20460;-81
2021/11/28 09:28:49;;;;;;;3.83;3.43;;;3.10;99.90;;;3.82;100.00;96135.91;5024451;28;20461;-81
2021/11/28 09:31:17;;;;;;;4.03;3.50;;;3.10;99.90;;;3.86;100.00;96138.91;5024479;28;20448;-82
2021/11/28 09:33:46;;;;;;;4.37;3.47;;;3.10;99.90;;;3.84;100.00;96138.31;5033643;28;20452;-81
2021/11/28 09:36:15;;;;;;;6.77;4.23;;;3.10;99.90;;;3.87;100.00;96135.34;5033726;28;20591;-81
2021/11/28 09:38:44;;;;;;;5.53;3.50;;;3.20;99.90;;;3.89;100.00;96134.16;5040025;28;20874;-81
2021/11/28 09:41:13;;;;;;;3.97;3.23;;;3.10;99.90;;;3.92;100.00;96135.56;5048965;28;20457;-81
2021/11/28 09:43:54;;;;;;;4.77;3.87;;;3.30;99.90;;;3.93;100.00;96140.53;5043991;28;20486;-81
2021/11/28 09:46:26;;;;;;;5.20;4.00;;;3.30;99.90;;;3.97;100.00;96138.34;5015930;28;20459;-81
2021/11/28 09:48:59;;;;;;;10.33;4.70;;;3.30;99.90;;;3.98;100.00;96134.78;5019539;28;20480;-82
2021/11/28 09:51:29;;;;;;;3.67;3.37;;;3.30;99.90;;;3.99;100.00;96134.59;5013728;28;20465;-81
2021/11/28 09:54:00;;;;;;;5.00;4.00;;;3.40;99.90;;;4.02;100.00;96139.41;5016898;28;20487;-81
2021/11/28 09:56:34;;;;;;;4.97;3.87;;;3.40;99.90;;;4.04;100.00;96136.59;5013215;28;20460;-82
2021/11/28 09:59:05;;;;;;;3.97;3.53;;;3.40;99.90;;;4.01;100.00;96135.19;5025230;28;20456;-82
2021/11/28 10:01:36;;;;;;;4.07;3.03;;;3.40;99.90;;;4.04;100.00;96136.59;5021867;28;20464;-81
2021/11/28 10:04:05;;;;;;;4.60;3.40;;;3.40;99.90;;;4.09;100.00;96139.41;5013611;28;20968;-81
2021/11/28 10:06:34;;;;;;;3.53;3.20;;;3.40;99.90;;;4.08;100.00;96145.56;5015996;28;20506;-82
2021/11/28 10:09:06;;;;;;;5.53;3.33;;;3.40;99.90;;;4.11;100.00;96141.78;5028647;28;20452;-82
2021/11/28 10:12:20;;;;;;;4.43;3.20;;;3.40;99.90;;;4.12;100.00;96138.22;5030330;28;20559;-82
2021/11/28 10:14:54;;;;;;;4.23;3.70;;;3.40;99.90;;;4.17;100.00;96141.00;5017419;28;20450;-82
2021/11/28 10:17:28;;;;;;;4.50;3.60;;;3.50;99.90;;;4.19;100.00;96139.03;5016651;28;20497;-82
2021/11/28 10:19:58;;;;;;;3.53;3.20;;;3.50;99.90;;;4.16;100.00;96132.47;5026003;28;20450;-82
2021/11/28 10:22:29;;;;;;;4.47;2.60;;;3.50;99.90;;;4.16;100.00;96131.69;5011682;28;20562;-82
2021/11/28 10:25:04;;;;;;;2.97;2.73;;;3.50;99.90;;;4.19;100.00;96128.69;5023859;28;20499;-82
2021/11/28 10:27:36;;;;;;;4.07;3.30;;;3.50;99.90;;;4.20;100.00;96123.31;5024561;28;20509;-82
2021/11/28 10:30:13;;;;;;;3.40;3.00;;;3.60;99.90;;;4.23;100.00;96127.31;5011595;28;20475;-82
2021/11/28 10:32:50;;;;;;;5.67;3.57;;;3.60;99.90;;;4.23;100.00;96128.13;5014859;28;20449;-82
2021/11/28 10:35:22;;;;;;;3.60;3.13;;;3.60;99.90;;;4.22;100.00;96121.34;5016208;28;20933;-81
2021/11/28 10:37:53;;;;;;;4.10;3.00;;;3.50;99.90;;;4.22;100.00;96125.72;5046534;28;20503;-81
2021/11/28 10:40:27;;;;;;;5.57;3.10;;;3.50;99.90;;;4.24;100.00;96118.56;5046641;28;20452;-81